sensor_id;sensor_type;location;lat;lon;timestamp;P1;durP1;ratioP1;P2;durP2;ratioP2
73512;SDS011;61754;55.008;73.348;2022-08-24T00:00:53;15.38;;;6.45;;
73512;SDS011;61754;55.008;73.348;2022-08-24T00:03:29;28.02;;;6.38;;
73512;SDS011;61754;55.008;73.348;2022-08-24T00:05:55;17.10;;;5.82;;
73512;SDS011;61754;55.008;73.348;2022-08-24T00:08:22;22.08;;;6.38;;
73512;SDS011;61754;55.008;73.348;2022-08-24T00:10:52;25.33;;;5.85;;
73512;SDS011;61754;55.008;73.348;2022-08-24T00:13:18;13.98;;;5.38;;
73512;SDS011;61754;55.008;73.348;2022-08-24T00:15:44;30.73;;;6.85;;
73512;SDS011;61754;55.008;73.348;2022-08-24T00:18:11;23.65;;;6.50;;
73512;SDS011;61754;55.008;73.348;2022-08-24T00:20:37;32.72;;;6.18;;
73512;SDS011;61754;55.008;73.348;2022-08-24T00:23:07;43.00;;;6.20;;
73512;SDS011;61754;55.008;73.348;2022-08-24T00:25:33;23.58;;;7.07;;
73512;SDS011;61754;55.008;73.348;2022-08-24T00:28:04;22.23;;;6.72;;
73512;SDS011;61754;55.008;73.348;2022-08-24T00:30:41;24.40;;;6.80;;
73512;SDS011;61754;55.008;73.348;2022-08-24T00:33:07;23.33;;;6.28;;
73512;SDS011;61754;55.008;73.348;2022-08-24T00:35:33;28.42;;;6.30;;
73512;SDS011;61754;55.008;73.348;2022-08-24T00:37:59;30.23;;;6.60;;
73512;SDS011;61754;55.008;73.348;2022-08-24T00:40:27;33.08;;;5.70;;
73512;SDS011;61754;55.008;73.348;2022-08-24T00:43:03;30.80;;;5.85;;
73512;SDS011;61754;55.008;73.348;2022-08-24T00:45:45;28.95;;;6.10;;
73512;SDS011;61754;55.008;73.348;2022-08-24T00:48:17;35.53;;;6.25;;
73512;SDS011;61754;55.008;73.348;2022-08-24T00:53:31;30.65;;;5.55;;
73512;SDS011;61754;55.008;73.348;2022-08-24T00:55:59;28.90;;;6.28;;
73512;SDS011;61754;55.008;73.348;2022-08-24T00:58:32;24.88;;;5.57;;
73512;SDS011;61754;55.008;73.348;2022-08-24T01:00:59;21.40;;;5.28;;
73512;SDS011;61754;55.008;73.348;2022-08-24T01:03:28;29.58;;;5.50;;
73512;SDS011;61754;55.008;73.348;2022-08-24T01:05:54;24.48;;;5.97;;
73512;SDS011;61754;55.008;73.348;2022-08-24T01:08:21;19.70;;;5.03;;
73512;SDS011;61754;55.008;73.348;2022-08-24T01:10:57;21.88;;;5.45;;
73512;SDS011;61754;55.008;73.348;2022-08-24T01:13:25;35.38;;;6.38;;
73512;SDS011;61754;55.008;73.348;2022-08-24T01:15:52;33.53;;;6.75;;
73512;SDS011;61754;55.008;73.348;2022-08-24T01:18:21;36.95;;;6.93;;
73512;SDS011;61754;55.008;73.348;2022-08-24T01:21:09;40.38;;;8.77;;
73512;SDS011;61754;55.008;73.348;2022-08-24T01:23:46;35.25;;;6.65;;
73512;SDS011;61754;55.008;73.348;2022-08-24T01:27:05;55.67;;;7.90;;
73512;SDS011;61754;55.008;73.348;2022-08-24T01:29:13;43.40;;;8.00;;
73512;SDS011;61754;55.008;73.348;2022-08-24T01:31:40;46.65;;;9.68;;
73512;SDS011;61754;55.008;73.348;2022-08-24T01:34:06;33.75;;;8.48;;
73512;SDS011;61754;55.008;73.348;2022-08-24T01:36:50;36.00;;;9.00;;
73512;SDS011;61754;55.008;73.348;2022-08-24T01:39:21;32.90;;;8.55;;
73512;SDS011;61754;55.008;73.348;2022-08-24T01:41:48;40.90;;;9.10;;
73512;SDS011;61754;55.008;73.348;2022-08-24T01:44:15;35.72;;;9.32;;
73512;SDS011;61754;55.008;73.348;2022-08-24T01:49:13;35.72;;;9.02;;
73512;SDS011;61754;55.008;73.348;2022-08-24T01:51:40;50.88;;;9.43;;
73512;SDS011;61754;55.008;73.348;2022-08-24T01:54:06;36.92;;;9.82;;
73512;SDS011;61754;55.008;73.348;2022-08-24T01:56:33;55.08;;;10.77;;
73512;SDS011;61754;55.008;73.348;2022-08-24T01:59:00;41.20;;;9.40;;
73512;SDS011;61754;55.008;73.348;2022-08-24T02:01:27;46.28;;;10.65;;
73512;SDS011;61754;55.008;73.348;2022-08-24T02:03:55;30.95;;;9.23;;
73512;SDS011;61754;55.008;73.348;2022-08-24T02:06:22;49.70;;;10.70;;
73512;SDS011;61754;55.008;73.348;2022-08-24T02:11:20;42.67;;;10.90;;
73512;SDS011;61754;55.008;73.348;2022-08-24T02:13:46;40.38;;;10.77;;
73512;SDS011;61754;55.008;73.348;2022-08-24T02:16:13;28.20;;;10.23;;
73512;SDS011;61754;55.008;73.348;2022-08-24T02:18:39;37.17;;;11.75;;
73512;SDS011;61754;55.008;73.348;2022-08-24T02:21:07;27.00;;;12.23;;
73512;SDS011;61754;55.008;73.348;2022-08-24T02:23:34;36.40;;;13.30;;
73512;SDS011;61754;55.008;73.348;2022-08-24T02:26:06;29.60;;;14.20;;
73512;SDS011;61754;55.008;73.348;2022-08-24T02:28:35;30.13;;;13.73;;
73512;SDS011;61754;55.008;73.348;2022-08-24T02:31:06;30.35;;;14.85;;
73512;SDS011;61754;55.008;73.348;2022-08-24T02:33:35;28.52;;;14.02;;
73512;SDS011;61754;55.008;73.348;2022-08-24T02:36:03;27.67;;;14.18;;
73512;SDS011;61754;55.008;73.348;2022-08-24T02:38:29;25.67;;;12.50;;
73512;SDS011;61754;55.008;73.348;2022-08-24T02:40:56;17.02;;;8.95;;
73512;SDS011;61754;55.008;73.348;2022-08-24T02:43:23;18.20;;;11.30;;
73512;SDS011;61754;55.008;73.348;2022-08-24T02:45:54;17.80;;;10.63;;
73512;SDS011;61754;55.008;73.348;2022-08-24T02:48:26;19.27;;;11.20;;
73512;SDS011;61754;55.008;73.348;2022-08-24T02:50:52;19.63;;;10.18;;
73512;SDS011;61754;55.008;73.348;2022-08-24T02:53:21;22.17;;;11.27;;
73512;SDS011;61754;55.008;73.348;2022-08-24T02:55:47;21.35;;;9.77;;
73512;SDS011;61754;55.008;73.348;2022-08-24T02:58:15;15.65;;;8.88;;
73512;SDS011;61754;55.008;73.348;2022-08-24T03:00:53;22.33;;;9.80;;
73512;SDS011;61754;55.008;73.348;2022-08-24T03:03:19;7.43;;;5.68;;
73512;SDS011;61754;55.008;73.348;2022-08-24T03:05:50;14.18;;;4.95;;
73512;SDS011;61754;55.008;73.348;2022-08-24T03:08:16;9.35;;;4.82;;
73512;SDS011;61754;55.008;73.348;2022-08-24T03:10:43;12.15;;;6.95;;
73512;SDS011;61754;55.008;73.348;2022-08-24T03:13:18;13.05;;;5.78;;
73512;SDS011;61754;55.008;73.348;2022-08-24T03:15:44;12.27;;;6.70;;
73512;SDS011;61754;55.008;73.348;2022-08-24T03:18:15;18.83;;;7.88;;
73512;SDS011;61754;55.008;73.348;2022-08-24T03:20:40;16.35;;;8.32;;
73512;SDS011;61754;55.008;73.348;2022-08-24T03:23:06;16.58;;;8.15;;
73512;SDS011;61754;55.008;73.348;2022-08-24T03:25:32;19.02;;;9.32;;
73512;SDS011;61754;55.008;73.348;2022-08-24T03:28:09;18.13;;;7.72;;
73512;SDS011;61754;55.008;73.348;2022-08-24T03:30:42;21.90;;;9.02;;
73512;SDS011;61754;55.008;73.348;2022-08-24T03:33:09;21.85;;;9.77;;
73512;SDS011;61754;55.008;73.348;2022-08-24T03:35:40;19.48;;;7.75;;
73512;SDS011;61754;55.008;73.348;2022-08-24T03:38:09;26.52;;;10.95;;
73512;SDS011;61754;55.008;73.348;2022-08-24T03:40:37;19.27;;;8.85;;
73512;SDS011;61754;55.008;73.348;2022-08-24T03:43:05;16.98;;;8.10;;
73512;SDS011;61754;55.008;73.348;2022-08-24T03:45:31;31.20;;;10.57;;
73512;SDS011;61754;55.008;73.348;2022-08-24T03:48:02;26.95;;;11.20;;
73512;SDS011;61754;55.008;73.348;2022-08-24T03:50:29;27.38;;;11.05;;
73512;SDS011;61754;55.008;73.348;2022-08-24T03:53:05;13.35;;;7.70;;
73512;SDS011;61754;55.008;73.348;2022-08-24T03:55:32;21.95;;;8.02;;
73512;SDS011;61754;55.008;73.348;2022-08-24T03:58:01;25.50;;;8.65;;
73512;SDS011;61754;55.008;73.348;2022-08-24T04:00:30;19.58;;;7.10;;
73512;SDS011;61754;55.008;73.348;2022-08-24T04:02:57;17.63;;;6.10;;
73512;SDS011;61754;55.008;73.348;2022-08-24T04:05:25;19.05;;;7.25;;
73512;SDS011;61754;55.008;73.348;2022-08-24T04:07:51;17.40;;;7.70;;
73512;SDS011;61754;55.008;73.348;2022-08-24T04:10:17;12.90;;;4.63;;
73512;SDS011;61754;55.008;73.348;2022-08-24T04:12:43;13.85;;;5.90;;
73512;SDS011;61754;55.008;73.348;2022-08-24T04:15:10;8.82;;;2.38;;
73512;SDS011;61754;55.008;73.348;2022-08-24T04:17:39;19.17;;;6.88;;
73512;SDS011;61754;55.008;73.348;2022-08-24T04:20:05;19.55;;;6.50;;
73512;SDS011;61754;55.008;73.348;2022-08-24T04:22:45;13.65;;;5.55;;
73512;SDS011;61754;55.008;73.348;2022-08-24T04:25:11;17.33;;;4.10;;
73512;SDS011;61754;55.008;73.348;2022-08-24T04:27:38;11.85;;;5.93;;
73512;SDS011;61754;55.008;73.348;2022-08-24T04:30:07;13.52;;;5.28;;
73512;SDS011;61754;55.008;73.348;2022-08-24T04:32:49;13.45;;;6.20;;
73512;SDS011;61754;55.008;73.348;2022-08-24T04:35:15;15.77;;;6.20;;
73512;SDS011;61754;55.008;73.348;2022-08-24T04:37:41;21.38;;;6.47;;
73512;SDS011;61754;55.008;73.348;2022-08-24T04:40:08;26.20;;;7.82;;
73512;SDS011;61754;55.008;73.348;2022-08-24T04:42:41;27.45;;;7.85;;
73512;SDS011;61754;55.008;73.348;2022-08-24T04:45:07;36.95;;;8.73;;
73512;SDS011;61754;55.008;73.348;2022-08-24T04:47:33;23.55;;;7.40;;
73512;SDS011;61754;55.008;73.348;2022-08-24T04:49:59;23.92;;;7.25;;
73512;SDS011;61754;55.008;73.348;2022-08-24T04:52:26;21.45;;;5.78;;
73512;SDS011;61754;55.008;73.348;2022-08-24T04:54:57;23.92;;;5.75;;
73512;SDS011;61754;55.008;73.348;2022-08-24T04:57:28;33.03;;;5.95;;
73512;SDS011;61754;55.008;73.348;2022-08-24T04:59:55;21.77;;;4.45;;
73512;SDS011;61754;55.008;73.348;2022-08-24T05:02:22;11.02;;;3.38;;
73512;SDS011;61754;55.008;73.348;2022-08-24T05:04:51;13.27;;;2.92;;
73512;SDS011;61754;55.008;73.348;2022-08-24T05:07:18;8.27;;;2.85;;
73512;SDS011;61754;55.008;73.348;2022-08-24T05:09:49;12.38;;;3.35;;
73512;SDS011;61754;55.008;73.348;2022-08-24T05:12:15;9.15;;;2.90;;
73512;SDS011;61754;55.008;73.348;2022-08-24T05:14:52;11.88;;;3.10;;
73512;SDS011;61754;55.008;73.348;2022-08-24T05:17:18;14.75;;;2.53;;
73512;SDS011;61754;55.008;73.348;2022-08-24T05:19:55;12.45;;;2.92;;
73512;SDS011;61754;55.008;73.348;2022-08-24T05:22:21;14.00;;;3.05;;
73512;SDS011;61754;55.008;73.348;2022-08-24T05:25:02;18.23;;;3.42;;
73512;SDS011;61754;55.008;73.348;2022-08-24T05:27:29;7.68;;;2.08;;
73512;SDS011;61754;55.008;73.348;2022-08-24T05:29:58;7.95;;;2.33;;
73512;SDS011;61754;55.008;73.348;2022-08-24T05:32:29;13.00;;;2.85;;
73512;SDS011;61754;55.008;73.348;2022-08-24T05:34:58;11.75;;;3.30;;
73512;SDS011;61754;55.008;73.348;2022-08-24T05:37:35;6.10;;;2.17;;
73512;SDS011;61754;55.008;73.348;2022-08-24T05:40:11;4.60;;;1.40;;
73512;SDS011;61754;55.008;73.348;2022-08-24T05:42:41;2.40;;;0.90;;
73512;SDS011;61754;55.008;73.348;2022-08-24T05:45:09;1.55;;;1.02;;
73512;SDS011;61754;55.008;73.348;2022-08-24T05:47:35;4.40;;;1.15;;
73512;SDS011;61754;55.008;73.348;2022-08-24T05:50:09;5.45;;;1.70;;
73512;SDS011;61754;55.008;73.348;2022-08-24T05:52:36;12.40;;;2.92;;
73512;SDS011;61754;55.008;73.348;2022-08-24T05:55:02;10.77;;;3.05;;
73512;SDS011;61754;55.008;73.348;2022-08-24T05:57:31;16.83;;;3.08;;
73512;SDS011;61754;55.008;73.348;2022-08-24T06:00:15;6.78;;;2.70;;
73512;SDS011;61754;55.008;73.348;2022-08-24T06:02:54;14.82;;;3.45;;
73512;SDS011;61754;55.008;73.348;2022-08-24T06:05:24;8.90;;;3.20;;
73512;SDS011;61754;55.008;73.348;2022-08-24T06:07:50;20.13;;;3.78;;
73512;SDS011;61754;55.008;73.348;2022-08-24T06:10:17;13.07;;;3.10;;
73512;SDS011;61754;55.008;73.348;2022-08-24T06:12:43;11.35;;;3.20;;
73512;SDS011;61754;55.008;73.348;2022-08-24T06:15:09;7.15;;;2.53;;
73512;SDS011;61754;55.008;73.348;2022-08-24T06:17:37;10.50;;;2.47;;
73512;SDS011;61754;55.008;73.348;2022-08-24T06:20:03;6.18;;;2.67;;
73512;SDS011;61754;55.008;73.348;2022-08-24T06:22:29;6.88;;;2.17;;
73512;SDS011;61754;55.008;73.348;2022-08-24T06:24:55;8.20;;;2.65;;
73512;SDS011;61754;55.008;73.348;2022-08-24T06:27:40;6.45;;;2.45;;
73512;SDS011;61754;55.008;73.348;2022-08-24T06:30:07;10.95;;;3.13;;
73512;SDS011;61754;55.008;73.348;2022-08-24T06:33:00;14.60;;;3.47;;
73512;SDS011;61754;55.008;73.348;2022-08-24T06:35:46;11.48;;;3.90;;
73512;SDS011;61754;55.008;73.348;2022-08-24T06:38:12;8.93;;;3.20;;
73512;SDS011;61754;55.008;73.348;2022-08-24T06:40:38;12.13;;;3.55;;
73512;SDS011;61754;55.008;73.348;2022-08-24T06:43:04;11.93;;;3.55;;
73512;SDS011;61754;55.008;73.348;2022-08-24T06:45:36;13.45;;;3.25;;
73512;SDS011;61754;55.008;73.348;2022-08-24T06:48:08;12.30;;;3.65;;
73512;SDS011;61754;55.008;73.348;2022-08-24T06:50:35;12.60;;;4.82;;
73512;SDS011;61754;55.008;73.348;2022-08-24T06:53:01;8.75;;;3.35;;
73512;SDS011;61754;55.008;73.348;2022-08-24T06:55:31;9.38;;;3.97;;
73512;SDS011;61754;55.008;73.348;2022-08-24T06:58:05;10.73;;;3.75;;
73512;SDS011;61754;55.008;73.348;2022-08-24T07:00:32;12.55;;;4.13;;
73512;SDS011;61754;55.008;73.348;2022-08-24T07:02:59;14.05;;;3.92;;
73512;SDS011;61754;55.008;73.348;2022-08-24T07:05:27;22.42;;;4.82;;
73512;SDS011;61754;55.008;73.348;2022-08-24T07:08:11;14.15;;;4.60;;
73512;SDS011;61754;55.008;73.348;2022-08-24T07:10:37;18.27;;;4.20;;
73512;SDS011;61754;55.008;73.348;2022-08-24T07:13:04;19.20;;;5.25;;
73512;SDS011;61754;55.008;73.348;2022-08-24T07:15:30;19.92;;;4.53;;
73512;SDS011;61754;55.008;73.348;2022-08-24T07:18:05;19.38;;;6.20;;
73512;SDS011;61754;55.008;73.348;2022-08-24T07:20:47;19.95;;;5.05;;
73512;SDS011;61754;55.008;73.348;2022-08-24T07:23:25;22.27;;;4.50;;
73512;SDS011;61754;55.008;73.348;2022-08-24T07:26:05;17.55;;;5.32;;
73512;SDS011;61754;55.008;73.348;2022-08-24T07:28:33;24.02;;;5.28;;
73512;SDS011;61754;55.008;73.348;2022-08-24T07:31:00;18.33;;;4.80;;
73512;SDS011;61754;55.008;73.348;2022-08-24T07:33:30;14.73;;;5.50;;
73512;SDS011;61754;55.008;73.348;2022-08-24T07:36:06;16.90;;;5.07;;
73512;SDS011;61754;55.008;73.348;2022-08-24T07:38:32;25.48;;;6.30;;
73512;SDS011;61754;55.008;73.348;2022-08-24T07:40:59;25.55;;;5.15;;
73512;SDS011;61754;55.008;73.348;2022-08-24T07:43:26;25.10;;;5.65;;
73512;SDS011;61754;55.008;73.348;2022-08-24T07:45:52;13.82;;;4.88;;
73512;SDS011;61754;55.008;73.348;2022-08-24T07:48:29;19.20;;;5.03;;
73512;SDS011;61754;55.008;73.348;2022-08-24T07:50:56;20.00;;;5.45;;
73512;SDS011;61754;55.008;73.348;2022-08-24T07:53:24;17.02;;;5.15;;
73512;SDS011;61754;55.008;73.348;2022-08-24T07:55:51;19.52;;;4.95;;
73512;SDS011;61754;55.008;73.348;2022-08-24T07:58:17;25.63;;;5.78;;
73512;SDS011;61754;55.008;73.348;2022-08-24T08:00:45;22.58;;;5.32;;
73512;SDS011;61754;55.008;73.348;2022-08-24T08:03:21;19.65;;;5.28;;
73512;SDS011;61754;55.008;73.348;2022-08-24T08:05:54;20.85;;;5.32;;
73512;SDS011;61754;55.008;73.348;2022-08-24T08:08:21;35.17;;;6.32;;
73512;SDS011;61754;55.008;73.348;2022-08-24T08:10:48;20.88;;;6.78;;
73512;SDS011;61754;55.008;73.348;2022-08-24T08:13:14;15.80;;;5.32;;
73512;SDS011;61754;55.008;73.348;2022-08-24T08:15:40;24.50;;;6.13;;
73512;SDS011;61754;55.008;73.348;2022-08-24T08:18:09;19.73;;;5.85;;
73512;SDS011;61754;55.008;73.348;2022-08-24T08:20:38;23.55;;;6.70;;
73512;SDS011;61754;55.008;73.348;2022-08-24T08:23:05;29.27;;;7.93;;
73512;SDS011;61754;55.008;73.348;2022-08-24T08:25:53;35.53;;;7.40;;
73512;SDS011;61754;55.008;73.348;2022-08-24T08:28:43;34.03;;;6.85;;
73512;SDS011;61754;55.008;73.348;2022-08-24T08:31:09;24.17;;;6.97;;
73512;SDS011;61754;55.008;73.348;2022-08-24T08:33:35;32.35;;;7.22;;
73512;SDS011;61754;55.008;73.348;2022-08-24T08:36:12;36.35;;;7.22;;
73512;SDS011;61754;55.008;73.348;2022-08-24T08:38:47;31.48;;;7.40;;
73512;SDS011;61754;55.008;73.348;2022-08-24T08:44:41;43.45;;;8.85;;
73512;SDS011;61754;55.008;73.348;2022-08-24T08:47:10;31.55;;;7.28;;
73512;SDS011;61754;55.008;73.348;2022-08-24T08:55:03;32.95;;;7.57;;
73512;SDS011;61754;55.008;73.348;2022-08-24T08:57:55;32.15;;;7.25;;
73512;SDS011;61754;55.008;73.348;2022-08-24T09:00:23;21.73;;;6.05;;
73512;SDS011;61754;55.008;73.348;2022-08-24T09:03:00;28.98;;;6.68;;
73512;SDS011;61754;55.008;73.348;2022-08-24T09:11:22;24.88;;;6.07;;
73512;SDS011;61754;55.008;73.348;2022-08-24T09:32:37;18.83;;;4.90;;
73512;SDS011;61754;55.008;73.348;2022-08-24T09:35:20;12.80;;;4.53;;
73512;SDS011;61754;55.008;73.348;2022-08-24T09:38:04;15.02;;;5.13;;
73512;SDS011;61754;55.008;73.348;2022-08-24T09:40:37;20.38;;;4.75;;
73512;SDS011;61754;55.008;73.348;2022-08-24T09:51:23;21.98;;;6.03;;
73512;SDS011;61754;55.008;73.348;2022-08-24T10:04:57;24.77;;;6.95;;
73512;SDS011;61754;55.008;73.348;2022-08-24T10:12:54;24.33;;;6.00;;
73512;SDS011;61754;55.008;73.348;2022-08-24T10:20:23;12.00;;;4.50;;
73512;SDS011;61754;55.008;73.348;2022-08-24T10:38:29;19.08;;;4.47;;
73512;SDS011;61754;55.008;73.348;2022-08-24T10:46:59;16.10;;;5.25;;
73512;SDS011;61754;55.008;73.348;2022-08-24T10:49:36;18.73;;;5.28;;
73512;SDS011;61754;55.008;73.348;2022-08-24T10:54:33;9.57;;;3.55;;
73512;SDS011;61754;55.008;73.348;2022-08-24T10:57:19;14.85;;;3.88;;
73512;SDS011;61754;55.008;73.348;2022-08-24T11:02:33;4.70;;;2.28;;
73512;SDS011;61754;55.008;73.348;2022-08-24T11:05:07;10.93;;;2.88;;
73512;SDS011;61754;55.008;73.348;2022-08-24T11:07:34;14.30;;;2.53;;
73512;SDS011;61754;55.008;73.348;2022-08-24T11:10:02;7.85;;;2.20;;
73512;SDS011;61754;55.008;73.348;2022-08-24T11:12:30;4.07;;;2.08;;
73512;SDS011;61754;55.008;73.348;2022-08-24T11:14:58;8.02;;;2.35;;
73512;SDS011;61754;55.008;73.348;2022-08-24T11:17:25;9.80;;;3.80;;
73512;SDS011;61754;55.008;73.348;2022-08-24T11:20:02;13.85;;;3.10;;
73512;SDS011;61754;55.008;73.348;2022-08-24T11:22:30;9.05;;;3.30;;
73512;SDS011;61754;55.008;73.348;2022-08-24T11:24:58;13.55;;;3.53;;
73512;SDS011;61754;55.008;73.348;2022-08-24T11:27:30;8.50;;;2.35;;
73512;SDS011;61754;55.008;73.348;2022-08-24T11:30:11;10.38;;;3.00;;
73512;SDS011;61754;55.008;73.348;2022-08-24T11:32:42;8.57;;;2.58;;
73512;SDS011;61754;55.008;73.348;2022-08-24T11:40:36;10.20;;;2.17;;
73512;SDS011;61754;55.008;73.348;2022-08-24T11:51:23;11.43;;;2.30;;
73512;SDS011;61754;55.008;73.348;2022-08-24T11:56:27;4.03;;;1.73;;
73512;SDS011;61754;55.008;73.348;2022-08-24T11:58:59;12.20;;;2.65;;
73512;SDS011;61754;55.008;73.348;2022-08-24T12:06:26;8.30;;;2.60;;
73512;SDS011;61754;55.008;73.348;2022-08-24T12:09:03;5.53;;;2.15;;
73512;SDS011;61754;55.008;73.348;2022-08-24T12:11:32;5.07;;;2.25;;
73512;SDS011;61754;55.008;73.348;2022-08-24T12:14:04;9.60;;;2.83;;
73512;SDS011;61754;55.008;73.348;2022-08-24T12:19:05;9.45;;;2.38;;
73512;SDS011;61754;55.008;73.348;2022-08-24T12:21:33;9.30;;;2.50;;
73512;SDS011;61754;55.008;73.348;2022-08-24T12:24:25;9.98;;;2.15;;
73512;SDS011;61754;55.008;73.348;2022-08-24T12:26:49;9.65;;;3.40;;
73512;SDS011;61754;55.008;73.348;2022-08-24T12:34:16;28.27;;;4.32;;
73512;SDS011;61754;55.008;73.348;2022-08-24T12:36:55;23.65;;;6.85;;
73512;SDS011;61754;55.008;73.348;2022-08-24T12:39:27;18.77;;;4.78;;
73512;SDS011;61754;55.008;73.348;2022-08-24T12:42:03;23.42;;;4.05;;
73512;SDS011;61754;55.008;73.348;2022-08-24T12:44:44;8.80;;;3.20;;
73512;SDS011;61754;55.008;73.348;2022-08-24T12:47:30;10.48;;;2.80;;
73512;SDS011;61754;55.008;73.348;2022-08-24T12:50:23;12.50;;;2.40;;
73512;SDS011;61754;55.008;73.348;2022-08-24T12:52:57;16.13;;;2.30;;
73512;SDS011;61754;55.008;73.348;2022-08-24T13:01:04;8.32;;;2.90;;
73512;SDS011;61754;55.008;73.348;2022-08-24T13:03:32;5.13;;;2.22;;
73512;SDS011;61754;55.008;73.348;2022-08-24T13:06:01;7.18;;;3.22;;
73512;SDS011;61754;55.008;73.348;2022-08-24T13:08:39;5.78;;;3.10;;
73512;SDS011;61754;55.008;73.348;2022-08-24T13:11:12;8.88;;;4.38;;
73512;SDS011;61754;55.008;73.348;2022-08-24T13:13:47;12.20;;;4.22;;
73512;SDS011;61754;55.008;73.348;2022-08-24T13:19:44;9.75;;;5.13;;
73512;SDS011;61754;55.008;73.348;2022-08-24T13:21:46;8.32;;;5.07;;
73512;SDS011;61754;55.008;73.348;2022-08-24T13:29:24;14.52;;;6.07;;
73512;SDS011;61754;55.008;73.348;2022-08-24T13:31:52;9.43;;;3.80;;
73512;SDS011;61754;55.008;73.348;2022-08-24T13:34:40;8.93;;;3.70;;
73512;SDS011;61754;55.008;73.348;2022-08-24T13:37:11;4.88;;;3.45;;
73512;SDS011;61754;55.008;73.348;2022-08-24T13:39:48;12.60;;;3.65;;
73512;SDS011;61754;55.008;73.348;2022-08-24T13:49:48;14.70;;;5.57;;
73512;SDS011;61754;55.008;73.348;2022-08-24T13:58:20;38.05;;;8.05;;
73512;SDS011;61754;55.008;73.348;2022-08-24T14:13:29;30.10;;;8.77;;
73512;SDS011;61754;55.008;73.348;2022-08-24T14:15:58;27.67;;;10.43;;
73512;SDS011;61754;55.008;73.348;2022-08-24T14:21:15;35.63;;;12.52;;
73512;SDS011;61754;55.008;73.348;2022-08-24T14:26:51;61.42;;;18.10;;
73512;SDS011;61754;55.008;73.348;2022-08-24T14:31:40;58.03;;;20.83;;
73512;SDS011;61754;55.008;73.348;2022-08-24T14:34:14;55.88;;;19.98;;
73512;SDS011;61754;55.008;73.348;2022-08-24T14:36:45;76.13;;;23.17;;
73512;SDS011;61754;55.008;73.348;2022-08-24T14:39:31;60.58;;;25.58;;
73512;SDS011;61754;55.008;73.348;2022-08-24T14:42:15;73.85;;;32.15;;
73512;SDS011;61754;55.008;73.348;2022-08-24T14:44:47;74.30;;;36.90;;
73512;SDS011;61754;55.008;73.348;2022-08-24T14:47:58;93.38;;;36.42;;
73512;SDS011;61754;55.008;73.348;2022-08-24T14:50:16;81.13;;;35.53;;
73512;SDS011;61754;55.008;73.348;2022-08-24T14:57:57;90.90;;;38.45;;
73512;SDS011;61754;55.008;73.348;2022-08-24T15:03:14;99.43;;;44.00;;
73512;SDS011;61754;55.008;73.348;2022-08-24T15:05:51;85.90;;;38.80;;
73512;SDS011;61754;55.008;73.348;2022-08-24T15:08:30;86.85;;;41.70;;
73512;SDS011;61754;55.008;73.348;2022-08-24T15:11:07;101.32;;;42.38;;
73512;SDS011;61754;55.008;73.348;2022-08-24T15:16:44;102.82;;;47.55;;
73512;SDS011;61754;55.008;73.348;2022-08-24T15:19:12;117.57;;;52.70;;
73512;SDS011;61754;55.008;73.348;2022-08-24T15:21:48;112.82;;;46.83;;
73512;SDS011;61754;55.008;73.348;2022-08-24T15:29:31;103.75;;;43.92;;
73512;SDS011;61754;55.008;73.348;2022-08-24T15:31:59;107.13;;;44.30;;
73512;SDS011;61754;55.008;73.348;2022-08-24T15:34:39;118.85;;;44.10;;
73512;SDS011;61754;55.008;73.348;2022-08-24T15:37:14;99.15;;;43.75;;
73512;SDS011;61754;55.008;73.348;2022-08-24T15:39:51;111.03;;;42.63;;
73512;SDS011;61754;55.008;73.348;2022-08-24T15:42:17;106.07;;;41.30;;
73512;SDS011;61754;55.008;73.348;2022-08-24T15:44:44;131.70;;;41.78;;
73512;SDS011;61754;55.008;73.348;2022-08-24T15:47:20;103.32;;;40.42;;
73512;SDS011;61754;55.008;73.348;2022-08-24T15:49:53;107.07;;;41.72;;
73512;SDS011;61754;55.008;73.348;2022-08-24T15:55:00;102.65;;;43.35;;
73512;SDS011;61754;55.008;73.348;2022-08-24T15:57:35;117.03;;;40.85;;
73512;SDS011;61754;55.008;73.348;2022-08-24T16:02:46;107.05;;;40.80;;
73512;SDS011;61754;55.008;73.348;2022-08-24T16:05:34;99.15;;;42.17;;
73512;SDS011;61754;55.008;73.348;2022-08-24T16:10:37;112.00;;;44.45;;
73512;SDS011;61754;55.008;73.348;2022-08-24T16:13:18;137.57;;;45.78;;
73512;SDS011;61754;55.008;73.348;2022-08-24T16:21:27;115.03;;;44.67;;
73512;SDS011;61754;55.008;73.348;2022-08-24T16:24:05;119.88;;;44.75;;
73512;SDS011;61754;55.008;73.348;2022-08-24T16:32:09;125.50;;;48.58;;
73512;SDS011;61754;55.008;73.348;2022-08-24T16:34:35;124.15;;;48.50;;
73512;SDS011;61754;55.008;73.348;2022-08-24T16:37:06;135.77;;;51.47;;
73512;SDS011;61754;55.008;73.348;2022-08-24T16:39:38;111.97;;;49.10;;
73512;SDS011;61754;55.008;73.348;2022-08-24T16:42:05;128.93;;;53.13;;
73512;SDS011;61754;55.008;73.348;2022-08-24T16:44:35;141.23;;;52.58;;
73512;SDS011;61754;55.008;73.348;2022-08-24T16:47:12;122.00;;;51.10;;
73512;SDS011;61754;55.008;73.348;2022-08-24T16:49:38;126.10;;;53.28;;
73512;SDS011;61754;55.008;73.348;2022-08-24T16:52:11;123.10;;;54.45;;
73512;SDS011;61754;55.008;73.348;2022-08-24T16:54:37;137.35;;;54.15;;
73512;SDS011;61754;55.008;73.348;2022-08-24T16:57:09;136.15;;;53.67;;
73512;SDS011;61754;55.008;73.348;2022-08-24T16:59:37;136.40;;;53.78;;
73512;SDS011;61754;55.008;73.348;2022-08-24T17:02:14;140.02;;;54.97;;
73512;SDS011;61754;55.008;73.348;2022-08-24T17:04:40;153.13;;;57.47;;
73512;SDS011;61754;55.008;73.348;2022-08-24T17:07:15;159.73;;;60.15;;
73512;SDS011;61754;55.008;73.348;2022-08-24T17:09:51;159.30;;;67.20;;
73512;SDS011;61754;55.008;73.348;2022-08-24T17:12:17;202.52;;;76.82;;
73512;SDS011;61754;55.008;73.348;2022-08-24T17:14:43;203.75;;;87.72;;
73512;SDS011;61754;55.008;73.348;2022-08-24T17:17:13;241.90;;;96.47;;
73512;SDS011;61754;55.008;73.348;2022-08-24T17:19:40;236.80;;;96.25;;
73512;SDS011;61754;55.008;73.348;2022-08-24T17:22:06;225.85;;;95.93;;
73512;SDS011;61754;55.008;73.348;2022-08-24T17:24:33;217.50;;;94.75;;
73512;SDS011;61754;55.008;73.348;2022-08-24T17:27:09;223.27;;;100.13;;
73512;SDS011;61754;55.008;73.348;2022-08-24T17:29:36;201.65;;;92.95;;
73512;SDS011;61754;55.008;73.348;2022-08-24T17:32:02;218.52;;;95.20;;
73512;SDS011;61754;55.008;73.348;2022-08-24T17:34:29;197.68;;;92.65;;
73512;SDS011;61754;55.008;73.348;2022-08-24T17:36:58;204.20;;;91.22;;
73512;SDS011;61754;55.008;73.348;2022-08-24T17:39:25;191.40;;;88.50;;
73512;SDS011;61754;55.008;73.348;2022-08-24T17:41:51;189.45;;;86.85;;
73512;SDS011;61754;55.008;73.348;2022-08-24T17:44:20;202.63;;;87.65;;
73512;SDS011;61754;55.008;73.348;2022-08-24T17:46:59;200.77;;;90.38;;
73512;SDS011;61754;55.008;73.348;2022-08-24T17:49:28;204.52;;;92.88;;
73512;SDS011;61754;55.008;73.348;2022-08-24T17:51:56;212.32;;;97.90;;
73512;SDS011;61754;55.008;73.348;2022-08-24T17:54:22;200.98;;;98.85;;
73512;SDS011;61754;55.008;73.348;2022-08-24T17:56:49;199.93;;;97.00;;
73512;SDS011;61754;55.008;73.348;2022-08-24T17:59:16;178.73;;;91.55;;
73512;SDS011;61754;55.008;73.348;2022-08-24T18:01:50;187.48;;;89.18;;
73512;SDS011;61754;55.008;73.348;2022-08-24T18:04:27;172.77;;;89.50;;
73512;SDS011;61754;55.008;73.348;2022-08-24T18:06:55;163.25;;;83.65;;
73512;SDS011;61754;55.008;73.348;2022-08-24T18:11:53;155.90;;;80.93;;